sensor_id;sensor_type;location;lat;lon;timestamp;P1;durP1;ratioP1;P2;durP2;ratioP2
60241;SDS011;46103;52.076;113.488;2022-09-12T00:01:08;20.98;;;7.88;;
60241;SDS011;46103;52.076;113.488;2022-09-12T00:04:14;15.32;;;6.68;;
60241;SDS011;46103;52.076;113.488;2022-09-12T00:07:19;19.88;;;9.02;;
60241;SDS011;46103;52.076;113.488;2022-09-12T00:10:22;27.40;;;10.38;;
60241;SDS011;46103;52.076;113.488;2022-09-12T00:13:27;31.02;;;11.07;;
60241;SDS011;46103;52.076;113.488;2022-09-12T00:16:31;28.33;;;11.13;;
60241;SDS011;46103;52.076;113.488;2022-09-12T00:19:37;30.88;;;11.60;;
60241;SDS011;46103;52.076;113.488;2022-09-12T00:22:41;25.45;;;9.85;;
60241;SDS011;46103;52.076;113.488;2022-09-12T00:25:46;26.52;;;10.05;;
60241;SDS011;46103;52.076;113.488;2022-09-12T00:28:50;17.42;;;7.75;;
60241;SDS011;46103;52.076;113.488;2022-09-12T00:31:55;28.70;;;9.15;;
60241;SDS011;46103;52.076;113.488;2022-09-12T00:34:59;18.85;;;7.80;;
60241;SDS011;46103;52.076;113.488;2022-09-12T00:38:05;22.77;;;8.32;;
60241;SDS011;46103;52.076;113.488;2022-09-12T00:41:13;26.17;;;8.55;;
60241;SDS011;46103;52.076;113.488;2022-09-12T00:47:26;23.48;;;9.00;;
60241;SDS011;46103;52.076;113.488;2022-09-12T00:50:31;18.17;;;7.22;;
60241;SDS011;46103;52.076;113.488;2022-09-12T00:53:36;24.20;;;7.82;;
60241;SDS011;46103;52.076;113.488;2022-09-12T00:56:42;20.97;;;7.00;;
60241;SDS011;46103;52.076;113.488;2022-09-12T00:59:58;19.77;;;6.20;;
60241;SDS011;46103;52.076;113.488;2022-09-12T01:03:16;20.63;;;4.88;;
60241;SDS011;46103;52.076;113.488;2022-09-12T01:06:26;13.00;;;4.33;;
60241;SDS011;46103;52.076;113.488;2022-09-12T01:09:32;15.52;;;3.42;;
60241;SDS011;46103;52.076;113.488;2022-09-12T01:12:37;14.73;;;3.83;;
60241;SDS011;46103;52.076;113.488;2022-09-12T01:15:43;10.63;;;3.38;;
60241;SDS011;46103;52.076;113.488;2022-09-12T01:18:54;11.57;;;3.20;;
60241;SDS011;46103;52.076;113.488;2022-09-12T01:22:08;9.48;;;3.08;;
60241;SDS011;46103;52.076;113.488;2022-09-12T01:39:29;2.78;;;1.23;;
60241;SDS011;46103;52.076;113.488;2022-09-12T01:43:17;5.00;;;0.93;;
60241;SDS011;46103;52.076;113.488;2022-09-12T01:46:41;5.70;;;1.00;;
60241;SDS011;46103;52.076;113.488;2022-09-12T01:49:52;1.30;;;0.60;;
60241;SDS011;46103;52.076;113.488;2022-09-12T01:53:14;2.38;;;0.70;;
60241;SDS011;46103;52.076;113.488;2022-09-12T01:56:24;2.67;;;0.98;;
60241;SDS011;46103;52.076;113.488;2022-09-12T01:59:32;2.45;;;1.33;;
60241;SDS011;46103;52.076;113.488;2022-09-12T02:02:56;2.03;;;0.80;;
60241;SDS011;46103;52.076;113.488;2022-09-12T02:06:16;7.72;;;1.00;;
60241;SDS011;46103;52.076;113.488;2022-09-12T02:12:37;11.38;;;0.93;;
60241;SDS011;46103;52.076;113.488;2022-09-12T02:15:55;1.20;;;0.90;;
60241;SDS011;46103;52.076;113.488;2022-09-12T02:19:11;2.85;;;0.88;;
60241;SDS011;46103;52.076;113.488;2022-09-12T02:22:20;0.98;;;0.75;;
60241;SDS011;46103;52.076;113.488;2022-09-12T02:25:26;3.55;;;0.80;;
60241;SDS011;46103;52.076;113.488;2022-09-12T02:28:34;3.97;;;0.70;;
60241;SDS011;46103;52.076;113.488;2022-09-12T02:38:57;4.55;;;0.80;;
60241;SDS011;46103;52.076;113.488;2022-09-12T02:42:16;1.20;;;0.73;;
60241;SDS011;46103;52.076;113.488;2022-09-12T02:45:30;3.40;;;0.90;;
60241;SDS011;46103;52.076;113.488;2022-09-12T02:48:53;6.03;;;0.90;;
60241;SDS011;46103;52.076;113.488;2022-09-12T02:52:43;1.60;;;0.80;;
60241;SDS011;46103;52.076;113.488;2022-09-12T02:55:44;3.17;;;1.33;;
60241;SDS011;46103;52.076;113.488;2022-09-12T03:10:13;1.50;;;0.98;;
60241;SDS011;46103;52.076;113.488;2022-09-12T03:13:32;2.20;;;0.63;;
60241;SDS011;46103;52.076;113.488;2022-09-12T03:16:55;3.60;;;0.85;;
60241;SDS011;46103;52.076;113.488;2022-09-12T03:21:06;1.90;;;0.90;;
60241;SDS011;46103;52.076;113.488;2022-09-12T03:27:06;5.50;;;2.15;;
60241;SDS011;46103;52.076;113.488;2022-09-12T03:30:22;3.47;;;0.85;;
60241;SDS011;46103;52.076;113.488;2022-09-12T03:33:42;1.80;;;0.73;;
60241;SDS011;46103;52.076;113.488;2022-09-12T03:37:26;2.40;;;0.88;;
60241;SDS011;46103;52.076;113.488;2022-09-12T03:41:39;1.75;;;0.85;;
60241;SDS011;46103;52.076;113.488;2022-09-12T03:45:13;7.93;;;1.20;;
60241;SDS011;46103;52.076;113.488;2022-09-12T03:48:19;4.35;;;1.08;;
60241;SDS011;46103;52.076;113.488;2022-09-12T03:51:33;7.45;;;1.27;;
60241;SDS011;46103;52.076;113.488;2022-09-12T03:54:48;4.68;;;1.05;;
60241;SDS011;46103;52.076;113.488;2022-09-12T03:58:37;2.58;;;1.05;;
60241;SDS011;46103;52.076;113.488;2022-09-12T04:01:53;4.03;;;0.90;;
60241;SDS011;46103;52.076;113.488;2022-09-12T04:05:34;5.93;;;1.00;;
60241;SDS011;46103;52.076;113.488;2022-09-12T04:08:39;2.10;;;0.90;;
60241;SDS011;46103;52.076;113.488;2022-09-12T04:11:44;2.17;;;0.80;;
60241;SDS011;46103;52.076;113.488;2022-09-12T04:14:49;3.13;;;0.90;;
60241;SDS011;46103;52.076;113.488;2022-09-12T04:17:53;8.23;;;1.10;;
60241;SDS011;46103;52.076;113.488;2022-09-12T04:20:57;1.50;;;0.80;;
60241;SDS011;46103;52.076;113.488;2022-09-12T04:24:01;4.78;;;0.98;;
60241;SDS011;46103;52.076;113.488;2022-09-12T04:27:05;3.25;;;1.10;;
60241;SDS011;46103;52.076;113.488;2022-09-12T04:30:09;3.35;;;0.98;;
60241;SDS011;46103;52.076;113.488;2022-09-12T04:33:14;1.75;;;0.70;;
60241;SDS011;46103;52.076;113.488;2022-09-12T04:36:18;5.47;;;1.30;;
60241;SDS011;46103;52.076;113.488;2022-09-12T04:39:21;5.18;;;1.10;;
60241;SDS011;46103;52.076;113.488;2022-09-12T04:42:25;2.55;;;0.90;;
60241;SDS011;46103;52.076;113.488;2022-09-12T04:45:29;6.55;;;1.13;;
60241;SDS011;46103;52.076;113.488;2022-09-12T04:48:35;2.65;;;0.85;;
60241;SDS011;46103;52.076;113.488;2022-09-12T04:51:40;3.78;;;0.95;;
60241;SDS011;46103;52.076;113.488;2022-09-12T04:54:46;1.50;;;0.90;;
60241;SDS011;46103;52.076;113.488;2022-09-12T04:57:50;2.60;;;0.90;;
60241;SDS011;46103;52.076;113.488;2022-09-12T05:00:53;2.88;;;0.90;;
60241;SDS011;46103;52.076;113.488;2022-09-12T05:03:57;9.50;;;1.30;;
60241;SDS011;46103;52.076;113.488;2022-09-12T05:07:02;3.80;;;0.88;;
60241;SDS011;46103;52.076;113.488;2022-09-12T05:10:07;3.47;;;0.80;;
60241;SDS011;46103;52.076;113.488;2022-09-12T05:13:12;3.45;;;0.80;;
60241;SDS011;46103;52.076;113.488;2022-09-12T05:16:16;2.35;;;0.75;;
60241;SDS011;46103;52.076;113.488;2022-09-12T05:19:21;2.92;;;0.90;;
60241;SDS011;46103;52.076;113.488;2022-09-12T05:22:25;2.25;;;0.82;;
60241;SDS011;46103;52.076;113.488;2022-09-12T05:25:29;4.75;;;0.90;;
60241;SDS011;46103;52.076;113.488;2022-09-12T05:28:34;5.68;;;0.98;;
60241;SDS011;46103;52.076;113.488;2022-09-12T05:31:40;4.22;;;0.70;;
60241;SDS011;46103;52.076;113.488;2022-09-12T05:34:43;2.40;;;0.80;;
60241;SDS011;46103;52.076;113.488;2022-09-12T05:37:47;2.90;;;0.85;;
60241;SDS011;46103;52.076;113.488;2022-09-12T05:40:51;1.58;;;0.80;;
60241;SDS011;46103;52.076;113.488;2022-09-12T05:43:55;4.20;;;0.90;;
60241;SDS011;46103;52.076;113.488;2022-09-12T05:47:01;2.17;;;0.90;;
60241;SDS011;46103;52.076;113.488;2022-09-12T05:50:05;1.63;;;0.70;;
60241;SDS011;46103;52.076;113.488;2022-09-12T05:53:13;2.42;;;0.80;;
60241;SDS011;46103;52.076;113.488;2022-09-12T05:56:20;2.30;;;1.25;;
60241;SDS011;46103;52.076;113.488;2022-09-12T05:59:25;6.57;;;0.77;;
60241;SDS011;46103;52.076;113.488;2022-09-12T06:02:30;6.72;;;1.05;;
60241;SDS011;46103;52.076;113.488;2022-09-12T06:05:34;1.80;;;0.90;;
60241;SDS011;46103;52.076;113.488;2022-09-12T06:08:38;2.58;;;1.00;;
60241;SDS011;46103;52.076;113.488;2022-09-12T06:11:46;2.90;;;0.85;;
60241;SDS011;46103;52.076;113.488;2022-09-12T06:14:50;2.53;;;0.82;;
60241;SDS011;46103;52.076;113.488;2022-09-12T06:17:55;2.45;;;1.38;;
60241;SDS011;46103;52.076;113.488;2022-09-12T06:21:02;2.22;;;0.98;;
60241;SDS011;46103;52.076;113.488;2022-09-12T06:24:07;4.57;;;1.02;;
60241;SDS011;46103;52.076;113.488;2022-09-12T06:27:11;2.05;;;0.77;;
60241;SDS011;46103;52.076;113.488;2022-09-12T06:30:17;0.98;;;0.70;;
60241;SDS011;46103;52.076;113.488;2022-09-12T06:33:26;5.55;;;0.80;;
60241;SDS011;46103;52.076;113.488;2022-09-12T06:36:35;1.05;;;0.65;;
60241;SDS011;46103;52.076;113.488;2022-09-12T06:39:39;2.13;;;0.90;;
60241;SDS011;46103;52.076;113.488;2022-09-12T06:42:43;2.30;;;0.80;;
60241;SDS011;46103;52.076;113.488;2022-09-12T06:46:00;3.60;;;0.75;;
60241;SDS011;46103;52.076;113.488;2022-09-12T06:49:04;3.17;;;0.80;;
60241;SDS011;46103;52.076;113.488;2022-09-12T06:52:08;2.08;;;0.82;;
60241;SDS011;46103;52.076;113.488;2022-09-12T06:55:11;2.35;;;0.75;;
60241;SDS011;46103;52.076;113.488;2022-09-12T06:58:20;4.70;;;0.80;;
60241;SDS011;46103;52.076;113.488;2022-09-12T07:04:28;2.67;;;0.60;;
60241;SDS011;46103;52.076;113.488;2022-09-12T07:07:32;6.35;;;0.80;;
60241;SDS011;46103;52.076;113.488;2022-09-12T07:10:38;3.30;;;0.90;;
60241;SDS011;46103;52.076;113.488;2022-09-12T07:13:42;1.73;;;0.70;;
60241;SDS011;46103;52.076;113.488;2022-09-12T07:19:51;3.40;;;0.77;;
60241;SDS011;46103;52.076;113.488;2022-09-12T07:22:58;2.95;;;0.70;;
60241;SDS011;46103;52.076;113.488;2022-09-12T07:26:01;1.88;;;0.60;;
60241;SDS011;46103;52.076;113.488;2022-09-12T07:29:06;6.55;;;0.80;;
60241;SDS011;46103;52.076;113.488;2022-09-12T07:32:34;3.90;;;1.23;;
60241;SDS011;46103;52.076;113.488;2022-09-12T07:35:38;3.45;;;0.98;;
60241;SDS011;46103;52.076;113.488;2022-09-12T07:38:42;2.90;;;0.70;;
60241;SDS011;46103;52.076;113.488;2022-09-12T07:41:46;4.45;;;0.85;;
60241;SDS011;46103;52.076;113.488;2022-09-12T07:44:50;7.38;;;0.65;;
60241;SDS011;46103;52.076;113.488;2022-09-12T07:47:55;2.92;;;0.80;;
60241;SDS011;46103;52.076;113.488;2022-09-12T07:51:02;3.78;;;1.15;;
60241;SDS011;46103;52.076;113.488;2022-09-12T07:54:07;2.15;;;0.70;;
60241;SDS011;46103;52.076;113.488;2022-09-12T07:57:12;4.90;;;0.80;;
60241;SDS011;46103;52.076;113.488;2022-09-12T08:00:17;3.35;;;0.82;;
60241;SDS011;46103;52.076;113.488;2022-09-12T08:03:21;3.35;;;0.93;;
60241;SDS011;46103;52.076;113.488;2022-09-12T08:06:26;3.45;;;0.90;;
60241;SDS011;46103;52.076;113.488;2022-09-12T08:09:32;6.22;;;0.85;;
60241;SDS011;46103;52.076;113.488;2022-09-12T08:12:36;3.30;;;1.02;;
60241;SDS011;46103;52.076;113.488;2022-09-12T08:15:40;2.83;;;1.00;;
60241;SDS011;46103;52.076;113.488;2022-09-12T08:18:43;1.17;;;0.98;;
60241;SDS011;46103;52.076;113.488;2022-09-12T08:21:46;6.90;;;0.90;;
60241;SDS011;46103;52.076;113.488;2022-09-12T08:24:50;5.03;;;0.80;;
60241;SDS011;46103;52.076;113.488;2022-09-12T08:27:54;3.55;;;0.73;;
60241;SDS011;46103;52.076;113.488;2022-09-12T08:31:01;3.70;;;0.70;;
60241;SDS011;46103;52.076;113.488;2022-09-12T08:34:09;1.20;;;0.63;;
60241;SDS011;46103;52.076;113.488;2022-09-12T08:37:13;3.50;;;0.70;;
60241;SDS011;46103;52.076;113.488;2022-09-12T08:40:17;5.93;;;1.00;;
60241;SDS011;46103;52.076;113.488;2022-09-12T08:43:32;1.92;;;0.70;;
60241;SDS011;46103;52.076;113.488;2022-09-12T08:46:47;4.13;;;0.70;;
60241;SDS011;46103;52.076;113.488;2022-09-12T08:50:14;6.22;;;1.00;;
60241;SDS011;46103;52.076;113.488;2022-09-12T08:53:22;5.00;;;1.10;;
60241;SDS011;46103;52.076;113.488;2022-09-12T08:56:30;3.85;;;0.88;;
60241;SDS011;46103;52.076;113.488;2022-09-12T08:59:40;4.55;;;1.20;;
60241;SDS011;46103;52.076;113.488;2022-09-12T09:06:28;10.45;;;1.30;;
60241;SDS011;46103;52.076;113.488;2022-09-12T09:09:59;3.85;;;1.23;;
60241;SDS011;46103;52.076;113.488;2022-09-12T09:16:51;5.28;;;1.60;;
60241;SDS011;46103;52.076;113.488;2022-09-12T09:20:06;3.97;;;1.42;;
60241;SDS011;46103;52.076;113.488;2022-09-12T09:26:29;7.53;;;1.42;;
60241;SDS011;46103;52.076;113.488;2022-09-12T09:29:39;10.63;;;2.10;;
60241;SDS011;46103;52.076;113.488;2022-09-12T09:32:53;10.55;;;1.60;;
60241;SDS011;46103;52.076;113.488;2022-09-12T09:36:06;10.23;;;2.00;;
60241;SDS011;46103;52.076;113.488;2022-09-12T09:40:43;6.03;;;1.30;;
60241;SDS011;46103;52.076;113.488;2022-09-12T09:43:22;4.05;;;1.70;;
60241;SDS011;46103;52.076;113.488;2022-09-12T09:46:31;5.82;;;1.80;;
60241;SDS011;46103;52.076;113.488;2022-09-12T09:49:37;6.47;;;1.40;;
60241;SDS011;46103;52.076;113.488;2022-09-12T09:52:41;4.50;;;1.17;;
60241;SDS011;46103;52.076;113.488;2022-09-12T09:55:47;3.45;;;1.15;;
60241;SDS011;46103;52.076;113.488;2022-09-12T09:58:51;4.70;;;1.13;;
60241;SDS011;46103;52.076;113.488;2022-09-12T10:05:25;3.60;;;1.08;;
60241;SDS011;46103;52.076;113.488;2022-09-12T10:08:31;5.85;;;1.10;;
60241;SDS011;46103;52.076;113.488;2022-09-12T10:11:38;3.80;;;1.52;;
60241;SDS011;46103;52.076;113.488;2022-09-12T10:14:55;4.00;;;1.30;;
60241;SDS011;46103;52.076;113.488;2022-09-12T10:18:03;4.70;;;1.30;;
60241;SDS011;46103;52.076;113.488;2022-09-12T10:24:34;5.97;;;1.10;;
60241;SDS011;46103;52.076;113.488;2022-09-12T10:27:43;1.00;;;0.70;;
60241;SDS011;46103;52.076;113.488;2022-09-12T10:30:50;3.08;;;1.02;;
60241;SDS011;46103;52.076;113.488;2022-09-12T10:33:56;2.00;;;1.10;;
60241;SDS011;46103;52.076;113.488;2022-09-12T10:37:06;2.43;;;0.93;;
60241;SDS011;46103;52.076;113.488;2022-09-12T10:40:20;15.10;;;1.30;;
60241;SDS011;46103;52.076;113.488;2022-09-12T10:43:32;3.50;;;0.70;;
60241;SDS011;46103;52.076;113.488;2022-09-12T10:46:38;5.80;;;0.82;;
60241;SDS011;46103;52.076;113.488;2022-09-12T10:49:42;5.18;;;0.93;;
60241;SDS011;46103;52.076;113.488;2022-09-12T10:52:45;5.88;;;0.90;;
60241;SDS011;46103;52.076;113.488;2022-09-12T11:02:35;3.13;;;0.80;;
60241;SDS011;46103;52.076;113.488;2022-09-12T11:05:56;2.85;;;0.80;;
60241;SDS011;46103;52.076;113.488;2022-09-12T11:09:11;4.45;;;1.05;;
60241;SDS011;46103;52.076;113.488;2022-09-12T11:16:19;6.90;;;1.00;;
60241;SDS011;46103;52.076;113.488;2022-09-12T11:19:36;3.28;;;1.00;;
60241;SDS011;46103;52.076;113.488;2022-09-12T11:23:16;5.07;;;1.00;;
60241;SDS011;46103;52.076;113.488;2022-09-12T11:29:51;1.83;;;1.00;;
60241;SDS011;46103;52.076;113.488;2022-09-12T11:36:11;4.15;;;0.80;;
60241;SDS011;46103;52.076;113.488;2022-09-12T11:39:38;1.75;;;0.90;;
60241;SDS011;46103;52.076;113.488;2022-09-12T11:42:46;1.17;;;0.90;;
60241;SDS011;46103;52.076;113.488;2022-09-12T11:45:53;2.25;;;0.80;;
60241;SDS011;46103;52.076;113.488;2022-09-12T11:52:17;4.15;;;0.85;;
60241;SDS011;46103;52.076;113.488;2022-09-12T11:55:26;4.70;;;1.00;;
60241;SDS011;46103;52.076;113.488;2022-09-12T11:58:33;3.70;;;1.08;;
60241;SDS011;46103;52.076;113.488;2022-09-12T12:01:39;2.35;;;1.30;;
60241;SDS011;46103;52.076;113.488;2022-09-12T12:08:28;5.70;;;1.27;;
60241;SDS011;46103;52.076;113.488;2022-09-12T12:15:12;6.70;;;1.20;;
60241;SDS011;46103;52.076;113.488;2022-09-12T12:18:23;2.30;;;0.90;;
60241;SDS011;46103;52.076;113.488;2022-09-12T12:24:57;5.40;;;0.85;;
60241;SDS011;46103;52.076;113.488;2022-09-12T12:38:55;2.38;;;0.80;;
60241;SDS011;46103;52.076;113.488;2022-09-12T12:41:59;1.92;;;0.95;;
60241;SDS011;46103;52.076;113.488;2022-09-12T12:48:14;2.28;;;0.90;;
60241;SDS011;46103;52.076;113.488;2022-09-12T12:57:51;3.50;;;1.10;;
60241;SDS011;46103;52.076;113.488;2022-09-12T13:04:12;1.67;;;0.75;;
60241;SDS011;46103;52.076;113.488;2022-09-12T13:07:24;4.00;;;1.00;;
60241;SDS011;46103;52.076;113.488;2022-09-12T13:10:34;2.30;;;1.00;;
60241;SDS011;46103;52.076;113.488;2022-09-12T13:13:49;3.80;;;1.08;;
60241;SDS011;46103;52.076;113.488;2022-09-12T13:16:59;9.60;;;1.10;;
60241;SDS011;46103;52.076;113.488;2022-09-12T13:23:34;3.70;;;0.80;;
60241;SDS011;46103;52.076;113.488;2022-09-12T13:26:42;3.35;;;1.20;;
60241;SDS011;46103;52.076;113.488;2022-09-12T13:29:47;1.73;;;1.00;;
60241;SDS011;46103;52.076;113.488;2022-09-12T13:32:51;1.95;;;1.15;;
60241;SDS011;46103;52.076;113.488;2022-09-12T13:39:27;3.00;;;0.98;;
60241;SDS011;46103;52.076;113.488;2022-09-12T13:42:48;2.72;;;1.02;;
60241;SDS011;46103;52.076;113.488;2022-09-12T13:45:55;3.33;;;1.10;;
60241;SDS011;46103;52.076;113.488;2022-09-12T13:49:00;2.50;;;1.30;;
60241;SDS011;46103;52.076;113.488;2022-09-12T13:52:30;2.30;;;1.15;;
60241;SDS011;46103;52.076;113.488;2022-09-12T13:55:35;2.33;;;1.30;;
60241;SDS011;46103;52.076;113.488;2022-09-12T13:58:49;4.65;;;1.70;;
60241;SDS011;46103;52.076;113.488;2022-09-12T14:01:56;4.15;;;1.20;;
60241;SDS011;46103;52.076;113.488;2022-09-12T14:04:59;4.80;;;1.40;;
60241;SDS011;46103;52.076;113.488;2022-09-12T14:08:11;1.92;;;1.10;;
60241;SDS011;46103;52.076;113.488;2022-09-12T14:11:28;3.25;;;1.50;;
60241;SDS011;46103;52.076;113.488;2022-09-12T14:14:34;2.65;;;1.02;;
60241;SDS011;46103;52.076;113.488;2022-09-12T14:17:46;4.78;;;1.10;;
60241;SDS011;46103;52.076;113.488;2022-09-12T14:20:54;2.30;;;1.02;;
60241;SDS011;46103;52.076;113.488;2022-09-12T14:24:03;2.97;;;1.13;;
60241;SDS011;46103;52.076;113.488;2022-09-12T14:27:09;3.35;;;1.10;;
60241;SDS011;46103;52.076;113.488;2022-09-12T14:30:29;2.22;;;1.10;;
60241;SDS011;46103;52.076;113.488;2022-09-12T14:33:48;3.92;;;1.00;;
60241;SDS011;46103;52.076;113.488;2022-09-12T14:36:56;4.28;;;1.20;;
60241;SDS011;46103;52.076;113.488;2022-09-12T14:40:01;2.80;;;1.30;;
60241;SDS011;46103;52.076;113.488;2022-09-12T14:43:15;1.63;;;1.10;;
60241;SDS011;46103;52.076;113.488;2022-09-12T14:46:31;1.67;;;1.08;;
60241;SDS011;46103;52.076;113.488;2022-09-12T14:49:37;2.05;;;1.00;;
60241;SDS011;46103;52.076;113.488;2022-09-12T14:52:40;2.97;;;1.20;;
60241;SDS011;46103;52.076;113.488;2022-09-12T14:55:49;3.75;;;1.08;;
60241;SDS011;46103;52.076;113.488;2022-09-12T14:59:18;2.00;;;1.20;;
60241;SDS011;46103;52.076;113.488;2022-09-12T15:02:27;1.65;;;1.10;;
60241;SDS011;46103;52.076;113.488;2022-09-12T15:05:31;2.22;;;1.20;;
60241;SDS011;46103;52.076;113.488;2022-09-12T15:08:35;2.65;;;1.20;;
60241;SDS011;46103;52.076;113.488;2022-09-12T15:11:38;3.05;;;1.10;;
60241;SDS011;46103;52.076;113.488;2022-09-12T15:14:42;1.48;;;0.90;;
60241;SDS011;46103;52.076;113.488;2022-09-12T15:17:46;1.27;;;0.90;;
60241;SDS011;46103;52.076;113.488;2022-09-12T15:20:56;1.75;;;1.00;;
60241;SDS011;46103;52.076;113.488;2022-09-12T15:24:07;1.80;;;1.38;;
60241;SDS011;46103;52.076;113.488;2022-09-12T15:27:11;3.53;;;1.10;;
60241;SDS011;46103;52.076;113.488;2022-09-12T15:30:15;3.65;;;1.10;;
60241;SDS011;46103;52.076;113.488;2022-09-12T15:33:22;1.77;;;1.00;;
60241;SDS011;46103;52.076;113.488;2022-09-12T15:36:27;2.90;;;1.20;;
60241;SDS011;46103;52.076;113.488;2022-09-12T15:39:31;1.45;;;1.00;;
60241;SDS011;46103;52.076;113.488;2022-09-12T15:42:35;3.85;;;1.17;;
60241;SDS011;46103;52.076;113.488;2022-09-12T15:45:40;2.85;;;1.25;;
60241;SDS011;46103;52.076;113.488;2022-09-12T15:48:45;3.03;;;1.08;;
60241;SDS011;46103;52.076;113.488;2022-09-12T15:51:49;2.28;;;0.90;;
60241;SDS011;46103;52.076;113.488;2022-09-12T15:54:52;5.38;;;1.70;;
60241;SDS011;46103;52.076;113.488;2022-09-12T15:57:55;2.40;;;1.20;;
60241;SDS011;46103;52.076;113.488;2022-09-12T16:00:58;2.38;;;1.00;;
60241;SDS011;46103;52.076;113.488;2022-09-12T16:04:02;2.72;;;1.08;;
60241;SDS011;46103;52.076;113.488;2022-09-12T16:07:06;1.63;;;1.00;;
60241;SDS011;46103;52.076;113.488;2022-09-12T16:10:12;2.00;;;1.20;;
60241;SDS011;46103;52.076;113.488;2022-09-12T16:13:18;3.63;;;1.13;;
60241;SDS011;46103;52.076;113.488;2022-09-12T16:16:22;2.25;;;1.08;;
60241;SDS011;46103;52.076;113.488;2022-09-12T16:19:26;2.13;;;1.35;;
60241;SDS011;46103;52.076;113.488;2022-09-12T16:22:29;1.90;;;1.10;;
60241;SDS011;46103;52.076;113.488;2022-09-12T16:25:33;3.17;;;1.13;;
60241;SDS011;46103;52.076;113.488;2022-09-12T16:28:37;2.78;;;1.25;;
60241;SDS011;46103;52.076;113.488;2022-09-12T16:31:40;2.22;;;1.30;;
60241;SDS011;46103;52.076;113.488;2022-09-12T16:34:45;3.10;;;1.20;;
60241;SDS011;46103;52.076;113.488;2022-09-12T16:37:48;2.88;;;1.15;;
60241;SDS011;46103;52.076;113.488;2022-09-12T16:40:58;3.40;;;1.20;;
60241;SDS011;46103;52.076;113.488;2022-09-12T16:44:06;2.30;;;1.00;;
60241;SDS011;46103;52.076;113.488;2022-09-12T16:47:09;2.70;;;1.10;;
60241;SDS011;46103;52.076;113.488;2022-09-12T16:50:14;1.35;;;0.95;;
60241;SDS011;46103;52.076;113.488;2022-09-12T16:53:18;1.98;;;1.25;;
60241;SDS011;46103;52.076;113.488;2022-09-12T16:56:22;2.13;;;1.30;;
60241;SDS011;46103;52.076;113.488;2022-09-12T16:59:26;2.75;;;1.10;;
60241;SDS011;46103;52.076;113.488;2022-09-12T17:02:30;2.40;;;1.20;;
60241;SDS011;46103;52.076;113.488;2022-09-12T17:05:34;3.20;;;1.30;;
60241;SDS011;46103;52.076;113.488;2022-09-12T17:08:39;4.15;;;1.23;;
60241;SDS011;46103;52.076;113.488;2022-09-12T17:11:45;1.77;;;1.00;;
60241;SDS011;46103;52.076;113.488;2022-09-12T17:14:49;2.90;;;1.40;;
60241;SDS011;46103;52.076;113.488;2022-09-12T17:17:53;1.70;;;0.98;;
60241;SDS011;46103;52.076;113.488;2022-09-12T17:20:57;3.42;;;1.10;;
60241;SDS011;46103;52.076;113.488;2022-09-12T17:24:01;3.33;;;1.20;;
60241;SDS011;46103;52.076;113.488;2022-09-12T17:27:05;3.47;;;1.20;;
60241;SDS011;46103;52.076;113.488;2022-09-12T17:30:09;2.25;;;1.13;;
60241;SDS011;46103;52.076;113.488;2022-09-12T17:33:13;1.83;;;1.13;;
60241;SDS011;46103;52.076;113.488;2022-09-12T17:36:17;3.97;;;1.33;;
60241;SDS011;46103;52.076;113.488;2022-09-12T17:39:20;4.45;;;1.30;;
60241;SDS011;46103;52.076;113.488;2022-09-12T17:42:24;4.00;;;1.48;;
60241;SDS011;46103;52.076;113.488;2022-09-12T17:45:28;2.08;;;1.20;;
60241;SDS011;46103;52.076;113.488;2022-09-12T17:48:32;2.78;;;1.10;;
60241;SDS011;46103;52.076;113.488;2022-09-12T17:51:36;2.92;;;1.00;;
60241;SDS011;46103;52.076;113.488;2022-09-12T17:54:39;1.48;;;1.00;;
60241;SDS011;46103;52.076;113.488;2022-09-12T17:57:44;5.03;;;1.30;;
60241;SDS011;46103;52.076;113.488;2022-09-12T18:00:47;2.55;;;1.00;;
60241;SDS011;46103;52.076;113.488;2022-09-12T18:04:09;3.97;;;1.10;;
60241;SDS011;46103;52.076;113.488;2022-09-12T18:07:16;4.32;;;1.20;;
60241;SDS011;46103;52.076;113.488;2022-09-12T18:10:21;2.80;;;1.30;;
60241;SDS011;46103;52.076;113.488;2022-09-12T18:13:24;3.33;;;1.50;;
60241;SDS011;46103;52.076;113.488;2022-09-12T18:16:27;3.30;;;1.23;;
60241;SDS011;46103;52.076;113.488;2022-09-12T18:19:33;4.15;;;1.45;;
60241;SDS011;46103;52.076;113.488;2022-09-12T18:22:38;3.53;;;1.30;;
60241;SDS011;46103;52.076;113.488;2022-09-12T18:25:42;2.92;;;1.30;;
60241;SDS011;46103;52.076;113.488;2022-09-12T18:28:46;3.67;;;1.35;;
60241;SDS011;46103;52.076;113.488;2022-09-12T18:31:50;3.58;;;1.15;;
60241;SDS011;46103;52.076;113.488;2022-09-12T18:34:55;3.25;;;1.02;;
60241;SDS011;46103;52.076;113.488;2022-09-12T18:37:58;1.75;;;1.10;;
60241;SDS011;46103;52.076;113.488;2022-09-12T18:41:02;7.72;;;1.50;;
60241;SDS011;46103;52.076;113.488;2022-09-12T18:44:10;3.40;;;1.40;;
60241;SDS011;46103;52.076;113.488;2022-09-12T18:47:14;2.58;;;1.42;;
60241;SDS011;46103;52.076;113.488;2022-09-12T18:50:18;3.03;;;1.40;;
60241;SDS011;46103;52.076;113.488;2022-09-12T18:53:22;4.75;;;1.42;;
60241;SDS011;46103;52.076;113.488;2022-09-12T18:56:28;3.30;;;1.30;;
60241;SDS011;46103;52.076;113.488;2022-09-12T18:59:36;5.20;;;1.40;;
60241;SDS011;46103;52.076;113.488;2022-09-12T19:02:39;2.45;;;1.42;;
60241;SDS011;46103;52.076;113.488;2022-09-12T19:05:43;6.13;;;1.48;;
60241;SDS011;46103;52.076;113.488;2022-09-12T19:08:47;4.70;;;1.30;;
60241;SDS011;46103;52.076;113.488;2022-09-12T19:11:52;2.38;;;1.20;;
60241;SDS011;46103;52.076;113.488;2022-09-12T19:14:55;3.22;;;1.70;;
60241;SDS011;46103;52.076;113.488;2022-09-12T19:18:00;4.15;;;1.55;;
60241;SDS011;46103;52.076;113.488;2022-09-12T19:21:05;4.88;;;1.40;;
60241;SDS011;46103;52.076;113.488;2022-09-12T19:24:10;7.45;;;1.55;;
60241;SDS011;46103;52.076;113.488;2022-09-12T19:27:15;2.40;;;1.30;;
60241;SDS011;46103;52.076;113.488;2022-09-12T19:30:22;2.10;;;1.30;;
60241;SDS011;46103;52.076;113.488;2022-09-12T19:33:25;5.53;;;1.73;;
60241;SDS011;46103;52.076;113.488;2022-09-12T19:36:29;3.58;;;1.35;;
60241;SDS011;46103;52.076;113.488;2022-09-12T19:39:49;4.30;;;1.20;;
60241;SDS011;46103;52.076;113.488;2022-09-12T19:42:52;3.75;;;1.60;;
60241;SDS011;46103;52.076;113.488;2022-09-12T19:45:57;3.15;;;1.63;;
60241;SDS011;46103;52.076;113.488;2022-09-12T19:49:01;3.58;;;1.50;;
60241;SDS011;46103;52.076;113.488;2022-09-12T19:52:05;3.25;;;1.60;;
60241;SDS011;46103;52.076;113.488;2022-09-12T19:55:09;3.33;;;1.40;;
60241;SDS011;46103;52.076;113.488;2022-09-12T19:58:13;3.03;;;1.30;;
60241;SDS011;46103;52.076;113.488;2022-09-12T20:01:18;4.18;;;1.58;;
60241;SDS011;46103;52.076;113.488;2022-09-12T20:04:24;2.88;;;1.38;;
60241;SDS011;46103;52.076;113.488;2022-09-12T20:07:28;5.18;;;1.42;;
60241;SDS011;46103;52.076;113.488;2022-09-12T20:10:31;2.88;;;1.40;;
60241;SDS011;46103;52.076;113.488;2022-09-12T20:13:35;4.60;;;1.40;;
60241;SDS011;46103;52.076;113.488;2022-09-12T20:16:38;2.95;;;1.42;;
60241;SDS011;46103;52.076;113.488;2022-09-12T20:19:41;3.20;;;1.48;;
60241;SDS011;46103;52.076;113.488;2022-09-12T20:22:48;5.18;;;1.20;;
60241;SDS011;46103;52.076;113.488;2022-09-12T20:25:59;5.20;;;1.55;;
60241;SDS011;46103;52.076;113.488;2022-09-12T20:29:03;2.80;;;1.50;;